YBUD

Details ICAO YBUD (BDB)
Name Bundaberg
Region Australia
Timezone Australia/Brisbane (UTC+10.0)
Plans Departing 362
Arriving 363
Stats Elevation 106 ft / 32 m (AMSL)
Location -24.903400° 152.320000°
Runways 2
Magnetic Variation 10.076° E
Sunrise 2019-11-21 18:55:18 UTC / 2019-11-22 04:55:18 Local
Sunset 2019-11-22 08:20:54 UTC / 2019-11-22 18:20:54 Local
Advertisement - Login to hide

Runways

ID Width Length Bearing (true/mag) Surface Threshold Overrun Markings Lighting
07 95 ft / 29 m 3,704 ft / 1,129 m 68.50° / 58.43° GRASS 0 ft / 0 m 0 ft / 0 m NONE
14 98 ft / 30 m 5,042 ft / 1,537 m 147.90° / 137.83° ASPHALT 331 ft / 101 m 30 ft / 9 m APP EDGE THRESHOLD
25 95 ft / 29 m 3,704 ft / 1,129 m 248.50° / 238.42° GRASS 0 ft / 0 m 0 ft / 0 m NONE
32 98 ft / 30 m 5,042 ft / 1,537 m 327.90° / 317.82° ASPHALT 0 ft / 0 m 39 ft / 12 m APP EDGE THRESHOLD

Map

Weather


0- 5 10 15 20 25 30 35+ Temperature / °C

Clouds and Precipitation
Forecast for 2019-11-21 18:00 UTC. Updated 3 hours ago

Ground ~20,000 ft ~40,000 ft Winds

METAR

YBUD 211800Z AUTO 19006KT 9999 // NCD 18/15 Q1016

TAF

Not found

Frequencies

Unicom 119.60 MHz ACTIVATE LIGHTS ONLY MULT
Unicom 124.10 MHz BRISBANE CENTRE MULT
Unicom 126.90 MHz BUNDABERG MULT
Warning: Do not use this data for real-world aviation or navigation. No guarantee of current accuracy is given.